Tamassee, SC (29686)

10:49 AM EDT on June 02, 2015 (GMT -0400)
KJ4YLO Beaver Lake | | Change Station
CLOSE
Current Station
Personal Weather Station
Location: West Union, SC
Elevation: 1000 ft
Nearby Weather Stations

Elev 1000 ft 34.82 °N, 83.02 °W | Updated 58 seconds ago

Mostly Cloudy
Mostly Cloudy
78.2 °F
Feels Like 80 °F
N
2.0
Wind Variable Wind from NE
Gusts 2.0 mph

Today
High -- | Low -- °F
--% Chance of Precip.
Yesterday
High -- | Low -- °F
Precip. -- in
6:19 AM 8:40 PM
Full, 100% visible
Pressure 30.05 in
Visibility 10.0 miles
Clouds Scattered Clouds 800 ft
Scattered Clouds 10000 ft
Heat Index 80 °F
Dew Point 69 °F
Humidity 73%
Rainfall 0.13 in
Snow Depth Not available.
UV 6 out of 12
Pollen 2.40 out of 12
Air Quality Not available.
Flu Activity Local Activity
SPECI KCEU 021423Z AUTO VRB03KT 10SM SCT008 SCT100 23/19 A3005 RMK AO2 T02330189

More Conditions Fewer Conditions

Pressure 30.05 in
Visibility 10.0 miles
Clouds Scattered Clouds 800 ft
Scattered Clouds 10000 ft
Heat Index 80 °F
Dew Point 69 °F
Humidity 73%
Rainfall 0.13 in
Snow Depth Not available.
UV 6 out of 12
Pollen 2.40 out of 12
Air Quality Not available.
Flu Activity Local Activity
SPECI KCEU 021423Z AUTO VRB03KT 10SM SCT008 SCT100 23/19 A3005 RMK AO2 T02330189

More Conditions Fewer Conditions

10-Day Weather Forecast

Almanac

Astronomy

Jun. 02, 2015 Rise Set
Actual Time
Civil Twilight
Nautical Twilight
Astronomical Twilight
Moon
Length of Visible Light
Length of Day
Tomorrow will be .
, % of the Moon is Illuminated

Today's Extremes

State Highs State Lows

Community

WunderPhotos

Upload Photos

1,825,931 photos uploaded!

WunderBlogs® & News

Nearby

Air Quality

  Air Quality AQ Index Pollutant
Not available.

Snow Depth

Station Depth Elevation

Earthquake Activity

City Distance Mag. Time & Date
Minimum magnitude displayed is 2.5.

Coastal Water Temperatures

Place Temperature

Stations

Nearby Weather Stations

Station Location Temp. Windchill Dew Point Humidity Wind Precip. Elev Updated Type